createdAt,value
2017-05-26T00:00:13.514Z,0
2017-05-26T00:10:13.498Z,0
2017-05-26T00:20:13.583Z,0
2017-05-26T00:30:13.519Z,0
2017-05-26T00:40:13.485Z,0
2017-05-26T00:50:13.533Z,0
2017-05-26T01:00:13.521Z,0
2017-05-26T01:10:13.547Z,0
2017-05-26T01:20:13.512Z,0
2017-05-26T01:30:13.471Z,0
2017-05-26T01:40:13.944Z,0
2017-05-26T01:50:13.522Z,0
2017-05-26T02:00:13.467Z,0
2017-05-26T02:10:13.541Z,0
2017-05-26T02:20:13.902Z,0
2017-05-26T02:30:13.554Z,4
2017-05-26T02:40:13.516Z,4
2017-05-26T02:50:13.478Z,12
2017-05-26T03:00:14.251Z,40
2017-05-26T03:10:14.366Z,120
2017-05-26T03:20:13.465Z,272
2017-05-26T03:30:13.519Z,532
2017-05-26T03:40:13.472Z,908
2017-05-26T03:50:13.554Z,1456
2017-05-26T04:00:13.520Z,1912
2017-05-26T04:10:13.464Z,2388
2017-05-26T04:20:13.523Z,2900
2017-05-26T04:30:13.507Z,3148
2017-05-26T04:40:13.464Z,3520
2017-05-26T04:50:13.516Z,3836
2017-05-26T05:00:13.492Z,4208
2017-05-26T05:10:13.561Z,4676
2017-05-26T05:20:13.493Z,4700
2017-05-26T05:30:13.455Z,4844
2017-05-26T05:40:13.531Z,5196
2017-05-26T05:50:13.499Z,5936
2017-05-26T06:00:13.452Z,8428
2017-05-26T06:10:13.502Z,48672
2017-05-26T06:20:13.470Z,54208
2017-05-26T06:30:13.526Z,68224
2017-05-26T06:40:13.493Z,59776
2017-05-26T06:50:13.479Z,60992
2017-05-26T07:00:13.546Z,51424
2017-05-26T07:10:13.494Z,37760
2017-05-26T07:20:13.599Z,49088
2017-05-26T07:30:13.539Z,56992
2017-05-26T07:40:13.560Z,64704
2017-05-26T07:50:13.542Z,68928
2017-05-26T08:00:13.512Z,74016
2017-05-26T08:10:13.572Z,79680
2017-05-26T08:20:13.538Z,86560
2017-05-26T08:30:13.606Z,95136
2017-05-26T08:40:13.557Z,88608
2017-05-26T08:50:13.515Z,88576
2017-05-26T09:00:13.587Z,7060
2017-05-26T09:10:13.522Z,5144
2017-05-26T09:20:13.596Z,4972
2017-05-26T09:30:13.513Z,4900
2017-05-26T09:40:13.513Z,4612
2017-05-26T09:50:13.519Z,4364
2017-05-26T10:00:13.520Z,4340
2017-05-26T10:10:13.517Z,4060
2017-05-26T10:20:13.519Z,4040
2017-05-26T10:30:13.514Z,3864
2017-05-26T10:40:13.563Z,3932
2017-05-26T10:50:13.502Z,3732
2017-05-26T11:00:13.518Z,3860
2017-05-26T11:10:13.519Z,3724
2017-05-26T11:20:13.525Z,3704
2017-05-26T11:30:13.602Z,3972
2017-05-26T11:40:13.660Z,3908
2017-05-26T11:50:13.660Z,3756
2017-05-26T12:00:13.603Z,3704
2017-05-26T12:10:13.546Z,3556
2017-05-26T12:20:13.613Z,3508
2017-05-26T12:30:13.580Z,3500
2017-05-26T12:40:13.616Z,3360
2017-05-26T12:50:13.596Z,3212
2017-05-26T13:00:13.550Z,3200
2017-05-26T13:10:13.630Z,3112
2017-05-26T13:20:13.592Z,3080
2017-05-26T13:30:13.644Z,3128
2017-05-26T13:40:13.609Z,3152
2017-05-26T13:50:13.933Z,3152
2017-05-26T14:00:13.630Z,3188
2017-05-26T14:10:13.585Z,3236
2017-05-26T14:20:13.639Z,3196
2017-05-26T14:30:13.636Z,3112
2017-05-26T14:40:13.545Z,3076
2017-05-26T14:50:13.561Z,3040
2017-05-26T15:00:13.563Z,3048
2017-05-26T15:10:13.559Z,3012
2017-05-26T15:20:13.575Z,3000
2017-05-26T15:30:13.586Z,3000
2017-05-26T15:40:13.579Z,2952
2017-05-26T15:50:13.584Z,2916
2017-05-26T16:00:13.607Z,2884
2017-05-26T16:10:13.557Z,2860
2017-05-26T16:20:13.583Z,2836
2017-05-26T16:30:13.838Z,2828
2017-05-26T16:40:13.581Z,2796
2017-05-26T16:50:13.555Z,2784
2017-05-26T17:00:13.591Z,2740
2017-05-26T17:10:13.595Z,2680
2017-05-26T17:20:13.579Z,2620
2017-05-26T17:30:13.554Z,2552
2017-05-26T17:40:13.747Z,2448
2017-05-26T17:50:13.654Z,2344
2017-05-26T18:00:13.613Z,2240
2017-05-26T18:10:13.684Z,2084
2017-05-26T18:20:13.642Z,1900
2017-05-26T18:30:13.595Z,1696
2017-05-26T18:40:13.654Z,1444
2017-05-26T18:50:13.599Z,1200
2017-05-26T19:00:13.672Z,948
2017-05-26T19:10:13.631Z,696
2017-05-26T19:20:13.698Z,456
2017-05-26T19:30:13.656Z,244
2017-05-26T19:40:13.644Z,116
2017-05-26T19:50:13.586Z,44
2017-05-26T20:00:13.721Z,16
2017-05-26T20:10:13.772Z,4
2017-05-26T20:20:13.677Z,4
2017-05-26T20:30:13.629Z,0
2017-05-26T20:40:13.703Z,0
2017-05-26T20:50:13.646Z,0
2017-05-26T21:00:13.621Z,0
2017-05-26T21:10:13.675Z,0
2017-05-26T21:20:13.697Z,0
2017-05-26T21:30:13.680Z,0
2017-05-26T21:40:13.652Z,0
2017-05-26T21:50:13.630Z,0
2017-05-26T22:00:13.751Z,0
2017-05-26T22:10:15.085Z,0
2017-05-26T22:20:14.524Z,0
2017-05-26T22:30:14.370Z,0
2017-05-26T22:40:14.482Z,0
2017-05-26T22:50:14.384Z,0
2017-05-26T23:00:13.664Z,0
2017-05-26T23:10:13.732Z,0
2017-05-26T23:20:13.675Z,0
2017-05-26T23:30:13.643Z,0
2017-05-26T23:40:13.703Z,0
2017-05-26T23:50:13.655Z,0
